Time;durP1;ratioP1;P1;durP2;ratioP2;P2;SDS_P1;SDS_P2;PMS_P1;PMS_P2;Temp;Humidity;BMP_temperature;BMP_pressure;BME280_temperature;BME280_humidity;BME280_pressure;Samples;Min_cycle;Max_cycle;Signal;HPM_P1;HPM_P2
2021/06/15 00:01:37;;;;;;;19.42;9.07;;;;;;;20.94;51.28;101564.88;5070487;28;20097;-64
2021/06/15 00:04:04;;;;;;;19.45;9.45;;;;;;;20.87;51.78;101563.00;5073455;23;20430;-64
2021/06/15 00:06:31;;;;;;;18.88;8.68;;;;;;;20.85;51.84;101573.16;5054076;28;20048;-64
2021/06/15 00:08:58;;;;;;;24.75;9.48;;;;;;;20.82;52.04;101567.34;5053475;28;20110;-64
2021/06/15 00:11:25;;;;;;;24.27;9.30;;;;;;;20.78;52.64;101560.72;5054594;28;20044;-64
2021/06/15 00:13:52;;;;;;;18.65;8.73;;;;;;;20.60;53.49;101551.25;5054412;28;20115;-64
2021/06/15 00:16:19;;;;;;;19.70;9.30;;;;;;;20.73;52.52;101557.78;5037847;28;20032;-64
2021/06/15 00:18:46;;;;;;;19.42;9.77;;;;;;;20.70;52.66;101561.69;5054256;28;20040;-64
2021/06/15 00:21:12;;;;;;;22.08;9.63;;;;;;;20.57;53.01;101562.44;5072042;28;20045;-64
2021/06/15 00:23:39;;;;;;;17.02;8.95;;;;;;;20.54;53.26;101562.84;5072224;28;20436;-64
2021/06/15 00:26:06;;;;;;;18.85;9.18;;;;;;;20.71;52.87;101571.44;5037522;28;20033;-64
2021/06/15 00:28:33;;;;;;;24.30;10.23;;;;;;;20.65;52.94;101574.97;5071791;28;20131;-64
2021/06/15 00:31:00;;;;;;;18.42;9.98;;;;;;;20.53;53.38;101572.78;5038667;28;20086;-64
2021/06/15 00:33:27;;;;;;;22.15;9.40;;;;;;;20.57;53.39;101569.69;5058099;28;20507;-64
2021/06/15 00:35:54;;;;;;;18.77;9.73;;;;;;;20.58;53.22;101561.41;5057705;28;20071;-64
2021/06/15 00:38:21;;;;;;;18.83;9.80;;;;;;;20.53;53.64;101563.88;5057627;28;20456;-64
2021/06/15 00:40:48;;;;;;;21.65;9.80;;;;;;;20.49;53.95;101565.31;5041212;28;20401;-64
2021/06/15 00:43:16;;;;;;;25.60;10.48;;;;;;;20.52;53.54;101568.44;5076217;28;20070;-64
2021/06/15 00:45:43;;;;;;;22.10;9.60;;;;;;;20.50;53.79;101569.66;5077629;28;20176;-64
2021/06/15 00:48:26;;;;;;;17.48;9.38;;;;;;;20.37;54.38;101566.91;5044751;28;20043;-64
2021/06/15 00:50:55;;;;;;;25.88;10.15;;;;;;;20.39;54.43;101567.53;5077745;28;20068;-64
2021/06/15 00:53:21;;;;;;;22.10;9.88;;;;;;;20.23;55.51;101569.53;5061307;28;20051;-64
2021/06/15 00:55:51;;;;;;;19.30;10.02;;;;;;;20.18;55.76;101566.59;5077513;28;20036;-64
2021/06/15 00:58:18;;;;;;;20.77;9.90;;;;;;;20.06;55.83;101571.69;5077339;28;20040;-64
2021/06/15 01:00:45;;;;;;;17.27;10.13;;;;;;;20.16;55.58;101570.53;5093575;28;20040;-64
2021/06/15 01:03:12;;;;;;;22.15;10.82;;;;;;;20.08;55.55;101563.41;5080566;28;20068;-64
2021/06/15 01:05:39;;;;;;;20.70;10.68;;;;;;;20.07;56.54;101570.66;5080704;28;20040;-64
2021/06/15 01:08:29;;;;;;;19.35;10.60;;;;;;;20.02;56.23;101570.41;5097116;28;20109;-64
2021/06/15 01:11:15;;;;;;;22.70;10.52;;;;;;;19.96;56.25;101576.59;5083886;28;20496;-64
2021/06/15 01:14:22;;;;;;;21.63;9.82;;;;;;;20.00;56.49;101574.34;5115550;28;20134;-64
2021/06/15 01:16:56;;;;;;;22.83;10.20;;;;;;;19.95;56.73;101580.31;5080288;28;20032;-64
2021/06/15 01:20:04;;;;;;;25.45;10.23;;;;;;;19.82;57.36;101572.97;5115582;28;20070;-64
2021/06/15 01:22:53;;;;;;;20.90;11.25;;;;;;;19.86;56.92;101576.91;5115552;28;20102;-64
2021/06/15 01:25:31;;;;;;;25.55;11.55;;;;;;;19.96;56.69;101587.38;5080412;28;20059;-64
2021/06/15 01:28:03;;;;;;;25.65;12.02;;;;;;;19.97;56.71;101585.50;5091043;28;20656;-64
2021/06/15 01:30:40;;;;;;;27.73;11.77;;;;;;;19.89;57.15;101584.63;5076954;28;20047;-64
2021/06/15 01:33:09;;;;;;;24.50;11.93;;;;;;;19.86;57.05;101581.47;5094870;28;20133;-64
2021/06/15 01:35:37;;;;;;;22.42;12.27;;;;;;;19.74;57.83;101581.19;5094733;28;20036;-64
2021/06/15 01:38:12;;;;;;;26.58;12.00;;;;;;;19.83;57.64;101577.34;5094617;28;20047;-64
2021/06/15 01:40:47;;;;;;;21.95;12.20;;;;;;;19.77;57.97;101572.72;5084810;28;20055;-64
2021/06/15 01:43:23;;;;;;;22.60;12.52;;;;;;;19.70;58.09;101578.03;5096564;28;20050;-64
2021/06/15 01:45:53;;;;;;;25.70;12.80;;;;;;;19.70;58.34;101572.63;5114840;28;20040;-64
2021/06/15 01:48:33;;;;;;;25.17;11.98;;;;;;;19.75;58.20;101581.00;5096907;28;20118;-64
2021/06/15 01:51:03;;;;;;;27.85;13.35;;;;;;;19.85;57.80;101586.03;5114739;28;20412;-64
2021/06/15 01:53:34;;;;;;;;;;;;;;;19.98;57.53;101593.38;5115083;28;20067;-64
2021/06/15 01:56:04;;;;;;;26.13;13.85;;;;;;;19.76;58.12;101581.81;5096735;28;19920;-64
2021/06/15 01:58:37;;;;;;;24.83;13.82;;;;;;;19.77;57.99;101580.78;5097367;28;20040;-64
2021/06/15 02:01:06;;;;;;;26.25;13.60;;;;;;;19.66;58.72;101578.59;5114593;28;20094;-64
2021/06/15 02:03:38;;;;;;;24.67;13.77;;;;;;;19.73;58.46;101587.59;5083675;28;20064;-64
2021/06/15 02:06:11;;;;;;;28.58;14.77;;;;;;;19.73;58.89;101582.22;5093894;28;20093;-64
2021/06/15 02:08:45;;;;;;;28.20;14.57;;;;;;;19.75;58.51;101577.47;5058719;28;20044;-64
2021/06/15 02:11:33;;;;;;;26.60;14.52;;;;;;;19.63;59.23;101579.81;5093976;28;20040;-64
2021/06/15 02:14:25;;;;;;;30.10;14.50;;;;;;;19.64;59.21;101586.84;5075677;28;20102;-64
2021/06/15 02:17:08;;;;;;;31.20;14.80;;;;;;;19.33;60.44;101590.69;5093776;28;20066;-64
2021/06/15 02:19:46;;;;;;;33.88;15.98;;;;;;;19.36;60.51;101582.25;5077670;28;20067;-64
2021/06/15 02:22:17;;;;;;;26.60;16.27;;;;;;;19.54;59.89;101575.59;5075655;28;20496;-64
2021/06/15 02:24:47;;;;;;;34.13;16.92;;;;;;;19.43;60.57;101579.66;5093641;28;20397;-64
2021/06/15 02:27:17;;;;;;;32.33;16.95;;;;;;;19.38;60.92;101574.81;5075905;28;20044;-64
2021/06/15 02:29:44;;;;;;;29.15;16.98;;;;;;;19.36;61.28;101578.75;5072218;28;20036;-64
2021/06/15 02:32:20;;;;;;;30.15;17.25;;;;;;;19.22;62.08;101583.16;5037278;28;20144;-64
2021/06/15 02:34:49;;;;;;;30.98;17.67;;;;;;;19.26;61.58;101575.53;5073132;28;20048;-64
2021/06/15 02:37:25;;;;;;;28.45;18.23;;;;;;;19.19;61.98;101578.13;5055318;28;20049;-64
2021/06/15 02:39:55;;;;;;;35.55;18.05;;;;;;;19.07;62.41;101574.31;5082054;28;20078;-64
2021/06/15 02:42:24;;;;;;;32.30;17.15;;;;;;;19.10;62.32;101576.59;5079534;28;20552;-64
2021/06/15 02:44:54;;;;;;;33.42;18.20;;;;;;;19.30;61.36;101587.56;5095870;28;20054;-64
2021/06/15 02:47:22;;;;;;;32.67;17.95;;;;;;;19.17;62.06;101590.94;5095251;28;20175;-64
2021/06/15 02:49:56;;;;;;;31.45;17.25;;;;;;;19.14;61.91;101581.41;5078838;28;20530;-64
2021/06/15 02:52:46;;;;;;;32.25;18.45;;;;;;;19.25;61.37;101579.25;5095131;28;20421;-64
2021/06/15 02:55:23;;;;;;;31.50;17.50;;;;;;;19.24;61.75;101588.34;5113439;28;20044;-64
2021/06/15 02:57:51;;;;;;;32.80;18.23;;;;;;;19.02;62.60;101591.00;5113423;28;20075;-64
2021/06/15 03:00:19;;;;;;;29.52;17.77;;;;;;;18.98;62.57;101589.72;5113372;28;20043;-64
2021/06/15 03:02:46;;;;;;;37.58;19.65;;;;;;;19.02;62.45;101582.09;5093866;28;20036;-64
2021/06/15 03:05:16;;;;;;;29.33;18.45;;;;;;;18.93;62.89;101597.50;5113188;28;20388;-64
2021/06/15 03:07:47;;;;;;;36.67;19.23;;;;;;;18.97;62.78;101588.03;5078864;28;20042;-64
2021/06/15 03:10:17;;;;;;;36.88;19.17;;;;;;;18.86;63.14;101580.47;5095202;28;20113;-64
2021/06/15 03:13:08;;;;;;;32.10;19.58;;;;;;;18.88;63.23;101586.47;5095580;28;20054;-64
2021/06/15 03:15:45;;;;;;;36.83;19.98;;;;;;;18.87;63.21;101584.81;5113296;28;20078;-64
2021/06/15 03:18:22;;;;;;;35.83;19.67;;;;;;;18.80;63.45;101587.41;5113259;28;20044;-64
2021/06/15 03:20:51;;;;;;;30.77;19.48;;;;;;;18.86;63.36;101592.03;5113030;28;20048;-64
2021/06/15 03:23:41;;;;;;;37.97;20.52;;;;;;;18.72;63.97;101592.84;5095662;28;20553;-64
2021/06/15 03:26:14;;;;;;;35.13;20.65;;;;;;;18.80;63.62;101593.59;5113233;28;20044;-64
2021/06/15 03:28:45;;;;;;;34.38;20.90;;;;;;;18.76;64.02;101605.75;5066457;28;20075;-64
2021/06/15 03:31:14;;;;;;;;;;;;;;;18.88;63.78;101611.53;5091474;28;20389;-64
2021/06/15 03:33:42;;;;;;;39.40;20.20;;;;;;;18.70;64.10;101619.94;5074609;28;19973;-64
2021/06/15 03:36:10;;;;;;;35.25;20.83;;;;;;;18.62;64.59;101611.97;5074618;28;20032;-64
2021/06/15 03:38:39;;;;;;;31.45;20.45;;;;;;;18.55;64.60;101619.94;5072802;28;20522;-64
2021/06/15 03:41:10;;;;;;;53.30;21.27;;;;;;;18.74;63.90;101615.03;5113087;28;20044;-64
2021/06/15 03:43:45;;;;;;;36.72;20.65;;;;;;;18.64;64.78;101614.47;5112991;28;20056;-64
2021/06/15 03:46:13;;;;;;;35.72;22.35;;;;;;;18.64;64.44;101607.25;5113211;28;20127;-64
2021/06/15 03:48:43;;;;;;;36.92;21.65;;;;;;;18.66;64.70;101610.56;5094654;28;20051;-64
2021/06/15 03:51:16;;;;;;;39.20;22.50;;;;;;;18.73;64.34;101607.97;5112817;28;20071;-64
2021/06/15 03:53:46;;;;;;;33.22;21.05;;;;;;;18.76;64.23;101618.38;5078145;28;20458;-64
2021/06/15 03:56:14;;;;;;;36.75;21.95;;;;;;;18.92;63.84;101617.38;5112952;28;20567;-64
2021/06/15 03:58:42;;;;;;;34.45;22.50;;;;;;;18.60;65.21;101625.59;5094807;28;20047;-64
2021/06/15 04:01:12;;;;;;;36.20;22.23;;;;;;;18.66;64.94;101618.63;5093255;28;20048;-64
2021/06/15 04:03:40;;;;;;;42.30;23.90;;;;;;;18.63;64.84;101626.22;5090243;28;20052;-64
2021/06/15 04:06:09;;;;;;;39.88;23.58;;;;;;;18.62;65.25;101617.34;5070977;28;20046;-64
2021/06/15 04:08:40;;;;;;;37.85;24.42;;;;;;;18.68;65.11;101623.81;5058241;28;20052;-64
2021/06/15 04:11:10;;;;;;;39.10;23.63;;;;;;;18.50;65.41;101630.41;5058640;28;20044;-64
2021/06/15 04:13:41;;;;;;;41.92;22.50;;;;;;;18.58;65.51;101637.56;5058490;28;20087;-64
2021/06/15 04:16:12;;;;;;;47.33;24.30;;;;;;;18.57;65.62;101642.09;5074950;28;20044;-64
2021/06/15 04:18:45;;;;;;;50.22;24.30;;;;;;;18.51;65.95;101642.81;5075792;28;20048;-64
2021/06/15 04:21:12;;;;;;;41.28;24.70;;;;;;;18.56;65.96;101653.03;5075738;28;20129;-64
2021/06/15 04:24:00;;;;;;;38.42;23.55;;;;;;;18.38;66.36;101656.88;5076033;28;20044;-64
2021/06/15 04:26:33;;;;;;;40.63;23.70;;;;;;;18.35;66.77;101651.03;5074560;28;20044;-64
2021/06/15 04:29:04;;;;;;;36.13;23.88;;;;;;;18.36;66.70;101652.72;5075662;28;20051;-64
2021/06/15 04:31:34;;;;;;;41.60;24.42;;;;;;;18.38;66.52;101662.25;5072556;28;20090;-63
2021/06/15 04:34:03;;;;;;;41.70;23.65;;;;;;;18.46;66.36;101665.88;5075756;28;20095;-64
2021/06/15 04:36:32;;;;;;;37.15;23.08;;;;;;;18.46;66.77;101669.41;5082743;28;20404;-64
2021/06/15 04:39:07;;;;;;;39.30;22.23;;;;;;;18.36;66.81;101675.03;5095949;28;20075;-64
2021/06/15 04:41:39;;;;;;;37.35;21.65;;;;;;;18.35;66.64;101678.72;5094657;28;20040;-64
2021/06/15 04:44:11;;;;;;;39.28;22.50;;;;;;;18.27;67.57;101683.38;5095789;28;20040;-64
2021/06/15 04:46:43;;;;;;;34.33;22.77;;;;;;;18.36;67.09;101676.91;5095634;28;20067;-64
2021/06/15 04:49:22;;;;;;;38.28;22.67;;;;;;;18.35;67.21;101680.59;5095536;28;20470;-64
2021/06/15 04:51:53;;;;;;;36.60;22.52;;;;;;;18.38;67.21;101682.91;5078401;28;20040;-64
2021/06/15 04:54:22;;;;;;;35.88;23.08;;;;;;;18.36;67.56;101684.97;5093881;28;20040;-64
2021/06/15 04:56:50;;;;;;;36.03;21.55;;;;;;;18.61;66.30;101682.88;5077715;28;20044;-64
2021/06/15 04:59:21;;;;;;;35.83;21.88;;;;;;;18.57;66.85;101686.91;5095533;28;20064;-64
2021/06/15 05:01:49;;;;;;;37.88;20.70;;;;;;;18.57;66.35;101685.09;5093407;28;20044;-64
2021/06/15 05:04:17;;;;;;;37.17;21.50;;;;;;;18.59;65.67;101696.47;5081211;28;20076;-64
2021/06/15 05:06:46;;;;;;;34.80;20.98;;;;;;;18.67;66.32;101689.34;5093667;28;20105;-64
2021/06/15 05:09:15;;;;;;;38.70;21.25;;;;;;;18.61;66.04;101685.56;5095041;28;20091;-64
2021/06/15 05:11:43;;;;;;;35.40;20.75;;;;;;;18.73;65.62;101688.59;5094035;28;20067;-64
2021/06/15 05:14:12;;;;;;;32.40;19.67;;;;;;;18.71;65.94;101693.34;5077297;28;20077;-64
2021/06/15 05:16:40;;;;;;;33.75;20.25;;;;;;;18.79;64.97;101698.59;5093320;28;20119;-64
2021/06/15 05:19:07;;;;;;;38.72;20.50;;;;;;;18.87;65.49;101700.41;5093749;28;20455;-64
2021/06/15 05:21:43;;;;;;;36.08;21.00;;;;;;;18.92;64.58;101712.28;5094754;28;20231;-64
2021/06/15 05:24:22;;;;;;;35.30;19.90;;;;;;;18.92;64.36;101712.28;5093872;28;20048;-64
2021/06/15 05:26:49;;;;;;;37.67;19.67;;;;;;;18.92;64.62;101698.00;5094707;28;20044;-64
2021/06/15 05:29:16;;;;;;;33.05;19.77;;;;;;;18.96;64.97;101705.50;5077990;28;20501;-64
2021/06/15 05:31:43;;;;;;;33.78;19.38;;;;;;;19.22;63.67;101714.94;5054567;28;20044;-64
2021/06/15 05:34:10;;;;;;;36.92;19.20;;;;;;;19.23;63.44;101722.00;5040971;28;20080;-64
2021/06/15 05:36:37;;;;;;;36.92;19.25;;;;;;;19.02;64.81;101705.78;5094658;28;20040;-64
2021/06/15 05:39:04;;;;;;;38.45;19.00;;;;;;;19.06;65.29;101707.91;5076643;28;20146;-64
2021/06/15 05:41:32;;;;;;;33.03;18.52;;;;;;;18.95;65.39;101701.13;5076807;28;20051;-64
2021/06/15 05:44:00;;;;;;;33.78;18.60;;;;;;;18.98;65.65;101703.47;5076516;28;20044;-64
2021/06/15 05:46:26;;;;;;;32.03;18.15;;;;;;;19.13;63.89;101697.22;5076062;28;20492;-64
2021/06/15 05:48:54;;;;;;;32.85;18.67;;;;;;;19.09;64.35;101698.63;5092989;28;20048;-64
2021/06/15 05:51:21;;;;;;;38.72;18.77;;;;;;;19.13;64.40;101694.53;5076098;28;20558;-64
2021/06/15 05:53:47;;;;;;;37.45;18.42;;;;;;;19.23;63.70;101699.63;5059614;28;20492;-64
2021/06/15 05:56:14;;;;;;;32.67;17.80;;;;;;;19.17;63.79;101696.69;5093216;28;20127;-64
2021/06/15 05:58:41;;;;;;;29.75;17.70;;;;;;;19.18;64.18;101697.50;5092340;28;20051;-64
2021/06/15 06:01:08;;;;;;;32.28;18.08;;;;;;;19.14;63.94;101698.91;5090528;28;20093;-64
2021/06/15 06:03:37;;;;;;;33.80;17.63;;;;;;;19.22;64.32;101697.97;5072284;28;20501;-64
2021/06/15 06:08:51;;;;;;;34.10;16.67;;;;;;;19.30;63.96;101687.94;5053376;28;20053;-64
2021/06/15 06:11:18;;;;;;;27.85;16.48;;;;;;;19.36;64.39;101691.72;5018749;28;20494;-64
2021/06/15 06:13:46;;;;;;;29.27;17.10;;;;;;;19.39;62.75;101691.34;5052423;28;20045;-64
2021/06/15 06:16:13;;;;;;;26.70;16.60;;;;;;;19.66;61.70;101692.47;5036029;28;20037;-64
2021/06/15 06:18:41;;;;;;;31.73;15.73;;;;;;;19.67;61.43;101698.69;5053580;28;20041;-64
2021/06/15 06:21:09;;;;;;;26.45;15.88;;;;;;;19.70;61.48;101709.91;5052189;28;20051;-64
2021/06/15 06:23:37;;;;;;;28.08;16.30;;;;;;;19.54;62.64;101716.34;5052626;28;20053;-64
2021/06/15 06:26:05;;;;;;;30.33;15.73;;;;;;;19.61;62.37;101719.13;5052854;28;20438;-64
2021/06/15 06:28:32;;;;;;;27.98;15.43;;;;;;;19.59;62.35;101717.63;5051144;28;20041;-64
2021/06/15 06:30:59;;;;;;;31.48;16.17;;;;;;;19.61;62.56;101718.28;5017493;28;20040;-64
2021/06/15 06:33:26;;;;;;;32.10;16.35;;;;;;;19.79;60.98;101716.03;5058429;28;20040;-64
2021/06/15 06:35:53;;;;;;;29.35;16.42;;;;;;;19.69;61.09;101713.63;5073240;28;20064;-64
2021/06/15 06:38:21;;;;;;;32.80;15.13;;;;;;;19.61;62.54;101726.34;5073327;28;20048;-64
2021/06/15 06:40:48;;;;;;;32.40;15.70;;;;;;;19.63;63.39;101722.47;5073015;28;20068;-64
2021/06/15 06:43:15;;;;;;;33.55;14.95;;;;;;;19.65;62.38;101733.03;5071639;28;20053;-64
2021/06/15 06:45:42;;;;;;;30.88;15.48;;;;;;;19.75;61.87;101734.44;5055733;28;20083;-64
2021/06/15 06:48:10;;;;;;;31.63;15.60;;;;;;;19.69;61.98;101732.47;5073132;28;20051;-64
2021/06/15 06:50:37;;;;;;;30.30;15.40;;;;;;;19.75;61.46;101731.75;5071689;28;20123;-64
2021/06/15 06:53:05;;;;;;;31.25;14.77;;;;;;;19.83;61.45;101730.78;5072705;28;20051;-64
2021/06/15 06:55:33;;;;;;;25.92;15.20;;;;;;;19.91;60.82;101736.03;5073002;28;20044;-64
2021/06/15 06:58:00;;;;;;;26.88;14.02;;;;;;;19.88;61.39;101728.34;5055334;28;20572;-64
2021/06/15 07:00:28;;;;;;;27.83;13.93;;;;;;;19.88;61.58;101728.34;5071241;28;20468;-64
2021/06/15 07:02:55;;;;;;;23.63;14.55;;;;;;;19.99;61.51;101731.53;5059491;28;20041;-64
2021/06/15 07:05:22;;;;;;;32.10;15.32;;;;;;;19.85;62.39;101725.22;5072358;28;20501;-63
2021/06/15 07:07:51;;;;;;;31.80;14.85;;;;;;;19.83;62.55;101733.47;5055917;28;20504;-65
2021/06/15 07:10:19;;;;;;;34.42;15.15;;;;;;;19.86;62.19;101740.31;5067097;28;20040;-65
2021/06/15 07:12:47;;;;;;;34.10;13.80;;;;;;;19.90;61.98;101736.22;5087389;28;20105;-65
2021/06/15 07:15:15;;;;;;;28.15;14.05;;;;;;;19.93;61.83;101733.97;5090469;28;20097;-66
2021/06/15 07:17:42;;;;;;;24.88;14.27;;;;;;;19.92;62.15;101737.72;5073107;28;20050;-66
2021/06/15 07:20:10;;;;;;;27.73;13.60;;;;;;;19.85;61.51;101738.69;5056975;28;20059;-65
2021/06/15 07:22:38;;;;;;;25.85;13.30;;;;;;;19.99;61.68;101739.63;5068604;28;20058;-66
2021/06/15 07:25:06;;;;;;;28.05;14.07;;;;;;;20.05;62.71;101739.69;5074056;28;20120;-66
2021/06/15 07:27:33;;;;;;;27.13;14.00;;;;;;;20.15;61.21;101736.66;5073478;28;20094;-66
2021/06/15 07:30:00;;;;;;;26.45;13.98;;;;;;;20.22;60.04;101731.34;5089604;28;20072;-66
2021/06/15 07:32:27;;;;;;;27.30;13.20;;;;;;;20.26;60.11;101735.31;5087401;28;20051;-66
2021/06/15 07:34:55;;;;;;;21.42;13.00;;;;;;;20.17;60.51;101721.13;5052894;28;20056;-66
2021/06/15 07:37:22;;;;;;;26.13;14.02;;;;;;;20.24;60.53;101732.00;5034136;28;20051;-66
2021/06/15 07:39:50;;;;;;;24.40;12.25;;;;;;;20.34;60.32;101729.81;5093483;28;20046;-66
2021/06/15 07:42:17;;;;;;;24.85;11.98;;;;;;;20.39;59.78;101735.44;5091807;28;20040;-66
2021/06/15 07:44:44;;;;;;;20.98;11.88;;;;;;;20.43;60.71;101738.56;5048731;28;20072;-66
2021/06/15 07:47:11;;;;;;;24.95;11.55;;;;;;;20.57;58.84;101739.50;5092372;28;20047;-66
2021/06/15 07:49:38;;;;;;;25.23;11.20;;;;;;;20.53;59.12;101739.06;5079881;28;20047;-66
2021/06/15 07:52:06;;;;;;;24.00;10.73;;;;;;;20.54;58.18;101746.13;5049885;28;20044;-65
2021/06/15 07:54:35;;;;;;;24.48;10.27;;;;;;;20.61;59.43;101747.03;5078432;28;20056;-66
2021/06/15 07:57:05;;;;;;;23.60;10.18;;;;;;;20.66;59.34;101743.75;5095929;28;20059;-65
2021/06/15 07:59:32;;;;;;;24.80;11.18;;;;;;;20.80;58.68;101744.69;5072846;28;20623;-65
2021/06/15 08:01:59;;;;;;;22.02;10.90;;;;;;;20.69;58.43;101746.88;5074759;28;20043;-65
2021/06/15 08:04:27;;;;;;;23.00;10.85;;;;;;;20.78;58.90;101752.13;5076255;28;20558;-65
2021/06/15 08:06:54;;;;;;;19.45;9.75;;;;;;;20.99;57.68;101748.50;5092594;28;20132;-65
2021/06/15 08:09:21;;;;;;;23.95;10.05;;;;;;;20.94;57.19;101751.81;5092237;28;20059;-65
2021/06/15 08:11:48;;;;;;;23.65;10.38;;;;;;;21.02;56.76;101751.66;5058697;28;20151;-64
2021/06/15 08:14:16;;;;;;;20.75;9.90;;;;;;;21.07;57.33;101743.78;5094569;28;20185;-65
2021/06/15 08:16:43;;;;;;;20.63;8.85;;;;;;;21.19;57.18;101746.78;5060221;28;20052;-65
2021/06/15 08:19:10;;;;;;;17.58;9.02;;;;;;;21.38;56.63;101738.97;5076863;28;20061;-65
2021/06/15 08:21:37;;;;;;;24.02;9.52;;;;;;;21.40;56.50;101745.81;5054757;28;20071;-64
2021/06/15 08:24:04;;;;;;;20.08;10.35;;;;;;;21.31;56.13;101740.81;5076922;28;20725;-64
2021/06/15 08:26:31;;;;;;;20.98;9.93;;;;;;;21.36;56.41;101736.47;5072556;28;20071;-65
2021/06/15 08:28:58;;;;;;;18.17;8.82;;;;;;;21.41;56.15;101738.53;5094643;28;20043;-64
2021/06/15 08:31:25;;;;;;;19.85;8.30;;;;;;;21.59;55.34;101732.63;5093708;28;20060;-65
2021/06/15 08:33:52;;;;;;;17.35;8.90;;;;;;;21.60;56.00;101727.00;5076841;28;20491;-65
2021/06/15 08:36:19;;;;;;;20.10;8.50;;;;;;;21.71;53.60;101731.00;5095056;28;20113;-65
2021/06/15 08:38:46;;;;;;;18.38;8.30;;;;;;;21.83;53.56;101729.38;5094785;28;20040;-65
2021/06/15 08:41:18;;;;;;;17.63;8.27;;;;;;;21.93;53.42;101726.25;5083823;28;20127;-65
2021/06/15 08:43:46;;;;;;;16.58;7.35;;;;;;;21.95;53.43;101721.47;5057625;28;20033;-65
2021/06/15 08:46:14;;;;;;;18.65;7.47;;;;;;;21.92;51.26;101718.34;5075814;28;20094;-65
2021/06/15 08:48:41;;;;;;;15.75;5.90;;;;;;;21.99;53.06;101716.47;5093267;28;20048;-65
2021/06/15 08:51:08;;;;;;;15.55;6.38;;;;;;;22.12;52.32;101721.06;5057072;28;20036;-65
2021/06/15 08:53:37;;;;;;;13.32;6.25;;;;;;;22.19;52.03;101722.75;5079804;28;20049;-65
2021/06/15 08:56:20;;;;;;;13.38;6.20;;;;;;;22.32;51.10;101718.41;5052829;28;20155;-65
2021/06/15 08:59:20;;;;;;;13.07;5.68;;;;;;;22.45;50.98;101718.41;5024156;28;20441;-65
2021/06/15 09:01:53;;;;;;;16.35;6.57;;;;;;;22.38;51.25;101723.00;5082138;28;20408;-66
2021/06/15 09:04:29;;;;;;;13.95;6.65;;;;;;;22.46;51.34;101721.94;5058175;28;20063;-65
2021/06/15 09:06:58;;;;;;;16.67;6.38;;;;;;;22.41;50.45;101726.09;5071902;28;20047;-65
2021/06/15 09:09:46;;;;;;;18.60;6.40;;;;;;;22.51;49.92;101722.16;5070235;28;20036;-65
2021/06/15 09:12:16;;;;;;;16.92;7.20;;;;;;;22.54;50.04;101729.81;5073185;28;20471;-65
2021/06/15 09:14:52;;;;;;;13.52;5.90;;;;;;;22.73;51.27;101720.84;5062865;28;20055;-65
2021/06/15 09:20:12;;;;;;;13.38;5.05;;;;;;;23.04;47.75;101716.63;5090658;27;20562;-64
2021/06/15 09:22:39;;;;;;;15.90;4.95;;;;;;;22.97;47.70;101716.63;5081122;28;20044;-64
2021/06/15 09:25:13;;;;;;;14.43;4.22;;;;;;;23.10;47.97;101710.38;5068287;28;20577;-64
2021/06/15 09:27:41;;;;;;;11.93;4.25;;;;;;;23.09;47.00;101719.53;5067190;28;20041;-65
2021/06/15 09:30:11;;;;;;;11.48;4.40;;;;;;;23.04;47.22;101721.19;5055642;28;20037;-65
2021/06/15 09:32:41;;;;;;;13.68;4.40;;;;;;;23.10;46.67;101721.22;5100823;28;20041;-65
2021/06/15 09:35:14;;;;;;;12.70;4.40;;;;;;;23.22;46.86;101715.13;5065729;28;20497;-66
2021/06/15 09:40:26;;;;;;;12.35;3.92;;;;;;;23.48;45.98;101717.69;5083733;27;20215;-65
2021/06/15 09:43:04;;;;;;;11.25;3.22;;;;;;;23.68;46.17;101714.03;5055676;28;20055;-64
2021/06/15 09:45:35;;;;;;;10.05;3.40;;;;;;;23.85;45.78;101706.25;5043111;28;20049;-65
2021/06/15 09:48:24;;;;;;;10.93;3.65;;;;;;;23.88;43.66;101708.53;5048632;28;20480;-64
2021/06/15 09:50:55;;;;;;;10.65;3.55;;;;;;;23.93;43.70;101708.69;5042751;28;20060;-64
2021/06/15 09:53:29;;;;;;;16.85;3.30;;;;;;;23.84;42.06;101716.25;5052776;28;20099;-63
2021/06/15 09:56:00;;;;;;;10.23;2.80;;;;;;;24.04;42.28;101715.28;5071338;28;20044;-64
2021/06/15 09:58:53;;;;;;;10.40;2.83;;;;;;;24.12;42.01;101707.72;5047629;28;20116;-64
2021/06/15 10:01:39;;;;;;;9.63;3.05;;;;;;;24.20;42.84;101714.75;5044138;28;20074;-65
2021/06/15 10:04:15;;;;;;;13.40;3.17;;;;;;;24.27;42.24;101712.81;5047112;28;20041;-65
2021/06/15 10:06:48;;;;;;;10.40;2.85;;;;;;;24.34;42.73;101701.91;5047455;28;20497;-64
2021/06/15 10:09:26;;;;;;;10.27;3.17;;;;;;;24.45;40.48;101717.44;5048227;28;20040;-66
2021/06/15 10:11:55;;;;;;;7.75;3.05;;;;;;;24.41;42.20;101701.84;5048325;28;20037;-66
2021/06/15 10:14:23;;;;;;;11.57;3.17;;;;;;;24.55;40.84;101708.00;5050572;28;20045;-66
2021/06/15 10:16:51;;;;;;;12.07;3.03;;;;;;;24.40;40.46;101709.16;5030699;28;20124;-64
2021/06/15 10:19:18;;;;;;;11.60;3.50;;;;;;;24.13;40.85;101703.13;5049689;28;20041;-65
2021/06/15 10:21:45;;;;;;;9.93;3.05;;;;;;;24.29;41.08;101709.88;5047828;28;20045;-66
2021/06/15 10:24:18;;;;;;;13.63;3.10;;;;;;;24.53;39.69;101700.09;5069956;28;20502;-66
2021/06/15 10:26:53;;;;;;;9.35;2.90;;;;;;;24.69;40.94;101706.81;5047184;28;20124;-66
2021/06/15 10:29:21;;;;;;;8.63;2.55;;;;;;;24.70;37.59;101714.72;5047139;28;20044;-66
2021/06/15 10:31:52;;;;;;;10.50;2.30;;;;;;;24.79;36.24;101704.38;5045022;28;20033;-67
2021/06/15 10:35:03;;;;;;;6.30;2.10;;;;;;;24.67;36.55;101706.22;5065815;28;20045;-66
2021/06/15 10:43:15;;;;;;;6.03;2.05;;;;;;;24.89;34.94;101699.28;5101875;27;20207;-64
2021/06/15 10:45:45;;;;;;;9.35;2.08;;;;;;;25.04;35.91;101701.59;5071162;28;20413;-64
2021/06/15 10:50:53;;;;;;;9.23;2.15;;;;;;;24.83;35.51;101686.63;5076454;27;20139;-65
2021/06/15 10:53:33;;;;;;;8.57;2.15;;;;;;;24.77;36.15;101701.06;5065932;28;20489;-65
2021/06/15 10:56:02;;;;;;;6.68;2.55;;;;;;;24.77;35.96;101701.06;5068688;28;20455;-65
2021/06/15 10:58:41;;;;;;;9.23;2.50;;;;;;;24.74;36.79;101701.53;5068590;28;20584;-66
2021/06/15 11:01:25;;;;;;;12.75;2.70;;;;;;;24.71;36.59;101705.53;5063710;28;20959;-66
2021/06/15 11:03:55;;;;;;;13.20;2.63;;;;;;;24.69;36.68;101702.22;5066559;28;20060;-66
2021/06/15 11:11:50;;;;;;;10.13;2.88;;;;;;;25.03;37.36;101690.97;5124206;27;79220;-65
2021/06/15 11:14:21;;;;;;;9.38;2.60;;;;;;;25.04;36.60;101689.91;5104996;28;20381;-66
2021/06/15 11:16:51;;;;;;;10.05;2.80;;;;;;;25.12;37.27;101694.19;5107913;28;20067;-66
2021/06/15 11:22:09;;;;;;;11.35;3.22;;;;;;;25.08;36.65;101691.94;5116000;27;20399;-67
2021/06/15 11:29:51;;;;;;;13.10;3.60;;;;;;;24.97;37.88;101691.88;5126490;27;20415;-66
2021/06/15 11:32:29;;;;;;;14.52;3.70;;;;;;;24.97;38.04;101698.13;5084305;28;20156;-66
2021/06/15 11:35:03;;;;;;;11.77;3.42;;;;;;;25.02;37.82;101692.03;5077766;27;20043;-67
2021/06/15 11:37:49;;;;;;;10.70;3.55;;;;;;;25.16;37.38;101689.97;5099278;27;20048;-67
2021/06/15 11:40:34;;;;;;;10.75;3.40;;;;;;;25.41;37.24;101690.72;5083605;28;20047;-68
2021/06/15 11:45:50;;;;;;;12.35;2.85;;;;;;;25.96;35.67;101688.88;5103684;27;20448;-67
2021/06/15 11:48:22;;;;;;;9.60;2.78;;;;;;;25.91;35.78;101684.13;5086604;28;20048;-67
2021/06/15 11:50:55;;;;;;;9.18;2.63;;;;;;;26.04;35.44;101686.63;5061493;28;20086;-68
2021/06/15 11:53:24;;;;;;;8.25;2.90;;;;;;;26.24;34.29;101686.28;5085222;28;20040;-68
2021/06/15 11:55:56;;;;;;;10.43;3.05;;;;;;;25.94;34.66;101683.69;5088230;28;20127;-67
2021/06/15 11:58:26;;;;;;;9.50;3.30;;;;;;;25.79;35.74;101683.25;5072077;28;20040;-68
2021/06/15 12:00:57;;;;;;;8.60;3.25;;;;;;;26.01;35.33;101683.56;5084369;28;20581;-67
2021/06/15 12:03:27;;;;;;;15.55;3.22;;;;;;;26.19;36.46;101679.91;5088149;28;20040;-68
2021/06/15 12:05:57;;;;;;;10.35;3.03;;;;;;;26.29;35.70;101677.44;5080904;28;20094;-66